sensor_id;sensor_type;location;lat;lon;timestamp;temperature;humidity
21316;DHT22;10817;55.820;13.030;2024-02-16T00:02:00;10.50;99.90
21316;DHT22;10817;55.820;13.030;2024-02-16T00:04:27;9.20;99.90
21316;DHT22;10817;55.820;13.030;2024-02-16T00:06:56;9.20;99.90
21316;DHT22;10817;55.820;13.030;2024-02-16T00:09:23;9.20;99.90
21316;DHT22;10817;55.820;13.030;2024-02-16T00:11:50;9.20;99.90
21316;DHT22;10817;55.820;13.030;2024-02-16T00:14:18;9.20;99.90
21316;DHT22;10817;55.820;13.030;2024-02-16T00:16:45;9.10;99.90
21316;DHT22;10817;55.820;13.030;2024-02-16T00:19:12;9.10;99.90
21316;DHT22;10817;55.820;13.030;2024-02-16T00:21:39;9.10;99.90
21316;DHT22;10817;55.820;13.030;2024-02-16T00:24:09;9.10;99.90
21316;DHT22;10817;55.820;13.030;2024-02-16T00:26:36;9.10;99.90
21316;DHT22;10817;55.820;13.030;2024-02-16T00:29:05;9.10;99.90
21316;DHT22;10817;55.820;13.030;2024-02-16T00:31:32;9.10;99.90
21316;DHT22;10817;55.820;13.030;2024-02-16T00:33:59;9.10;99.90
21316;DHT22;10817;55.820;13.030;2024-02-16T00:36:26;9.10;99.90
21316;DHT22;10817;55.820;13.030;2024-02-16T00:38:53;9.10;99.90
21316;DHT22;10817;55.820;13.030;2024-02-16T00:41:23;10.00;99.90
21316;DHT22;10817;55.820;13.030;2024-02-16T00:43:50;9.10;99.90
21316;DHT22;10817;55.820;13.030;2024-02-16T00:46:17;9.00;99.90
21316;DHT22;10817;55.820;13.030;2024-02-16T00:48:44;9.00;99.90
21316;DHT22;10817;55.820;13.030;2024-02-16T00:51:12;9.00;99.90
21316;DHT22;10817;55.820;13.030;2024-02-16T00:53:39;9.20;99.90
21316;DHT22;10817;55.820;13.030;2024-02-16T00:56:06;9.00;99.90
21316;DHT22;10817;55.820;13.030;2024-02-16T00:58:35;9.00;99.90
21316;DHT22;10817;55.820;13.030;2024-02-16T01:01:04;9.00;99.90
21316;DHT22;10817;55.820;13.030;2024-02-16T01:03:36;8.90;99.90
21316;DHT22;10817;55.820;13.030;2024-02-16T01:06:03;10.80;99.90
21316;DHT22;10817;55.820;13.030;2024-02-16T01:08:31;9.00;99.90
21316;DHT22;10817;55.820;13.030;2024-02-16T01:10:59;9.00;99.90
21316;DHT22;10817;55.820;13.030;2024-02-16T01:13:28;10.50;99.90
21316;DHT22;10817;55.820;13.030;2024-02-16T01:15:57;9.10;99.90
21316;DHT22;10817;55.820;13.030;2024-02-16T01:18:25;9.00;99.90
21316;DHT22;10817;55.820;13.030;2024-02-16T01:20:52;9.10;99.90
21316;DHT22;10817;55.820;13.030;2024-02-16T01:23:20;9.10;99.90
21316;DHT22;10817;55.820;13.030;2024-02-16T01:25:47;9.10;99.90
21316;DHT22;10817;55.820;13.030;2024-02-16T01:28:14;9.10;99.90
21316;DHT22;10817;55.820;13.030;2024-02-16T01:30:41;9.10;99.90
21316;DHT22;10817;55.820;13.030;2024-02-16T01:33:10;9.20;99.90
21316;DHT22;10817;55.820;13.030;2024-02-16T01:35:38;9.20;99.90
21316;DHT22;10817;55.820;13.030;2024-02-16T01:38:08;9.20;99.90
21316;DHT22;10817;55.820;13.030;2024-02-16T01:40:35;9.20;99.90
21316;DHT22;10817;55.820;13.030;2024-02-16T01:43:04;11.20;99.90
21316;DHT22;10817;55.820;13.030;2024-02-16T01:45:34;9.30;99.90
21316;DHT22;10817;55.820;13.030;2024-02-16T01:48:01;9.20;99.90
21316;DHT22;10817;55.820;13.030;2024-02-16T01:50:30;9.50;99.90
21316;DHT22;10817;55.820;13.030;2024-02-16T01:52:59;11.60;99.90
21316;DHT22;10817;55.820;13.030;2024-02-16T01:55:26;9.30;99.90
21316;DHT22;10817;55.820;13.030;2024-02-16T01:57:57;9.30;99.90
21316;DHT22;10817;55.820;13.030;2024-02-16T02:00:25;9.30;99.90
21316;DHT22;10817;55.820;13.030;2024-02-16T02:02:52;9.30;99.90
21316;DHT22;10817;55.820;13.030;2024-02-16T02:05:19;9.50;99.90
21316;DHT22;10817;55.820;13.030;2024-02-16T02:07:47;9.30;99.90
21316;DHT22;10817;55.820;13.030;2024-02-16T02:10:15;10.10;99.90
21316;DHT22;10817;55.820;13.030;2024-02-16T02:12:42;9.70;99.90
21316;DHT22;10817;55.820;13.030;2024-02-16T02:15:10;9.30;99.90
21316;DHT22;10817;55.820;13.030;2024-02-16T02:17:37;9.30;99.90
21316;DHT22;10817;55.820;13.030;2024-02-16T02:20:06;9.80;99.90
21316;DHT22;10817;55.820;13.030;2024-02-16T02:22:37;9.30;99.90
21316;DHT22;10817;55.820;13.030;2024-02-16T02:25:05;9.40;99.90
21316;DHT22;10817;55.820;13.030;2024-02-16T02:27:32;9.40;99.90
21316;DHT22;10817;55.820;13.030;2024-02-16T02:29:59;9.40;99.90
21316;DHT22;10817;55.820;13.030;2024-02-16T02:32:26;9.40;99.90
21316;DHT22;10817;55.820;13.030;2024-02-16T02:34:54;9.40;99.90
21316;DHT22;10817;55.820;13.030;2024-02-16T02:37:21;9.40;99.90
21316;DHT22;10817;55.820;13.030;2024-02-16T02:39:49;9.40;99.90
21316;DHT22;10817;55.820;13.030;2024-02-16T02:42:16;9.40;99.90
21316;DHT22;10817;55.820;13.030;2024-02-16T02:44:43;9.40;99.90
21316;DHT22;10817;55.820;13.030;2024-02-16T02:47:15;9.40;99.90
21316;DHT22;10817;55.820;13.030;2024-02-16T02:49:42;9.40;99.90
21316;DHT22;10817;55.820;13.030;2024-02-16T02:52:09;9.50;99.90
21316;DHT22;10817;55.820;13.030;2024-02-16T02:54:36;9.40;99.90
21316;DHT22;10817;55.820;13.030;2024-02-16T02:57:04;9.50;99.90
21316;DHT22;10817;55.820;13.030;2024-02-16T02:59:31;9.50;99.90
21316;DHT22;10817;55.820;13.030;2024-02-16T03:01:58;9.50;99.90
21316;DHT22;10817;55.820;13.030;2024-02-16T03:04:25;9.50;99.90
21316;DHT22;10817;55.820;13.030;2024-02-16T03:06:52;9.50;99.90
21316;DHT22;10817;55.820;13.030;2024-02-16T03:09:19;9.50;99.90
21316;DHT22;10817;55.820;13.030;2024-02-16T03:11:46;9.80;99.90
21316;DHT22;10817;55.820;13.030;2024-02-16T03:14:14;9.50;99.90
21316;DHT22;10817;55.820;13.030;2024-02-16T03:16:41;9.50;99.90
21316;DHT22;10817;55.820;13.030;2024-02-16T03:19:08;9.50;99.90
21316;DHT22;10817;55.820;13.030;2024-02-16T03:21:35;9.60;99.90
21316;DHT22;10817;55.820;13.030;2024-02-16T03:24:02;9.60;99.90
21316;DHT22;10817;55.820;13.030;2024-02-16T03:26:30;9.50;99.90
21316;DHT22;10817;55.820;13.030;2024-02-16T03:28:57;9.50;99.90
21316;DHT22;10817;55.820;13.030;2024-02-16T03:31:26;9.80;99.90
21316;DHT22;10817;55.820;13.030;2024-02-16T03:33:55;9.50;99.90
21316;DHT22;10817;55.820;13.030;2024-02-16T03:36:22;9.60;99.90
21316;DHT22;10817;55.820;13.030;2024-02-16T03:38:48;9.60;99.90
21316;DHT22;10817;55.820;13.030;2024-02-16T03:41:19;9.50;99.90
21316;DHT22;10817;55.820;13.030;2024-02-16T03:43:46;9.60;99.90
21316;DHT22;10817;55.820;13.030;2024-02-16T03:46:13;9.70;99.90
21316;DHT22;10817;55.820;13.030;2024-02-16T03:48:41;9.60;99.90
21316;DHT22;10817;55.820;13.030;2024-02-16T03:51:08;9.50;99.90
21316;DHT22;10817;55.820;13.030;2024-02-16T03:53:35;9.60;99.90
21316;DHT22;10817;55.820;13.030;2024-02-16T03:56:02;9.70;99.90
21316;DHT22;10817;55.820;13.030;2024-02-16T03:58:29;9.50;99.90
21316;DHT22;10817;55.820;13.030;2024-02-16T04:00:55;9.50;99.90
21316;DHT22;10817;55.820;13.030;2024-02-16T04:03:23;9.70;99.90
21316;DHT22;10817;55.820;13.030;2024-02-16T04:05:52;9.50;99.90
21316;DHT22;10817;55.820;13.030;2024-02-16T04:08:19;9.50;99.90
21316;DHT22;10817;55.820;13.030;2024-02-16T04:10:46;9.50;99.90
21316;DHT22;10817;55.820;13.030;2024-02-16T04:13:13;9.60;99.90
21316;DHT22;10817;55.820;13.030;2024-02-16T04:15:40;9.50;99.90
21316;DHT22;10817;55.820;13.030;2024-02-16T04:18:07;9.50;99.90
21316;DHT22;10817;55.820;13.030;2024-02-16T04:20:34;9.40;99.90
21316;DHT22;10817;55.820;13.030;2024-02-16T04:23:03;9.40;99.90
21316;DHT22;10817;55.820;13.030;2024-02-16T04:25:30;9.40;99.90
21316;DHT22;10817;55.820;13.030;2024-02-16T04:27:57;9.40;99.90
21316;DHT22;10817;55.820;13.030;2024-02-16T04:30:23;9.60;99.90
21316;DHT22;10817;55.820;13.030;2024-02-16T04:32:50;9.40;99.90
21316;DHT22;10817;55.820;13.030;2024-02-16T04:35:16;9.40;99.90
21316;DHT22;10817;55.820;13.030;2024-02-16T04:37:43;9.40;99.90
21316;DHT22;10817;55.820;13.030;2024-02-16T04:40:12;9.90;99.90
21316;DHT22;10817;55.820;13.030;2024-02-16T04:42:39;9.40;99.90
21316;DHT22;10817;55.820;13.030;2024-02-16T04:45:07;9.40;99.90
21316;DHT22;10817;55.820;13.030;2024-02-16T04:47:34;9.50;99.90
21316;DHT22;10817;55.820;13.030;2024-02-16T04:50:01;9.50;99.90
21316;DHT22;10817;55.820;13.030;2024-02-16T04:52:28;9.40;99.90
21316;DHT22;10817;55.820;13.030;2024-02-16T04:54:55;9.40;99.90
21316;DHT22;10817;55.820;13.030;2024-02-16T04:57:23;9.70;99.90
21316;DHT22;10817;55.820;13.030;2024-02-16T04:59:50;9.40;99.90
21316;DHT22;10817;55.820;13.030;2024-02-16T05:02:17;9.50;99.90
21316;DHT22;10817;55.820;13.030;2024-02-16T05:04:44;9.50;99.90
21316;DHT22;10817;55.820;13.030;2024-02-16T05:07:11;9.90;99.90
21316;DHT22;10817;55.820;13.030;2024-02-16T05:09:37;9.40;99.90
21316;DHT22;10817;55.820;13.030;2024-02-16T05:12:06;9.50;99.90
21316;DHT22;10817;55.820;13.030;2024-02-16T05:14:35;9.50;99.90
21316;DHT22;10817;55.820;13.030;2024-02-16T05:17:02;9.50;99.90
21316;DHT22;10817;55.820;13.030;2024-02-16T05:19:32;9.50;99.90
21316;DHT22;10817;55.820;13.030;2024-02-16T05:21:59;9.50;99.90
21316;DHT22;10817;55.820;13.030;2024-02-16T05:24:26;9.60;99.90
21316;DHT22;10817;55.820;13.030;2024-02-16T05:26:53;9.60;99.90
21316;DHT22;10817;55.820;13.030;2024-02-16T05:29:21;9.50;99.90
21316;DHT22;10817;55.820;13.030;2024-02-16T05:31:52;9.50;99.90
21316;DHT22;10817;55.820;13.030;2024-02-16T05:34:19;9.40;99.90
21316;DHT22;10817;55.820;13.030;2024-02-16T05:36:46;9.40;99.90
21316;DHT22;10817;55.820;13.030;2024-02-16T05:39:13;9.50;99.90
21316;DHT22;10817;55.820;13.030;2024-02-16T05:41:52;9.50;99.90
21316;DHT22;10817;55.820;13.030;2024-02-16T05:44:19;9.60;99.90
21316;DHT22;10817;55.820;13.030;2024-02-16T05:46:46;9.50;99.90
21316;DHT22;10817;55.820;13.030;2024-02-16T05:49:15;9.40;99.90
21316;DHT22;10817;55.820;13.030;2024-02-16T05:51:42;9.40;99.90
21316;DHT22;10817;55.820;13.030;2024-02-16T05:54:26;9.50;99.90
21316;DHT22;10817;55.820;13.030;2024-02-16T05:56:53;9.50;99.90
21316;DHT22;10817;55.820;13.030;2024-02-16T05:59:20;9.50;99.90
21316;DHT22;10817;55.820;13.030;2024-02-16T06:01:47;9.50;99.90
21316;DHT22;10817;55.820;13.030;2024-02-16T06:04:17;9.50;99.90
21316;DHT22;10817;55.820;13.030;2024-02-16T06:06:44;9.50;99.90
21316;DHT22;10817;55.820;13.030;2024-02-16T06:09:10;9.40;99.90
21316;DHT22;10817;55.820;13.030;2024-02-16T06:11:37;9.40;99.90
21316;DHT22;10817;55.820;13.030;2024-02-16T06:14:04;9.40;99.90
21316;DHT22;10817;55.820;13.030;2024-02-16T06:16:31;9.50;99.90
21316;DHT22;10817;55.820;13.030;2024-02-16T06:18:59;9.40;99.90
21316;DHT22;10817;55.820;13.030;2024-02-16T06:21:27;9.50;99.90
21316;DHT22;10817;55.820;13.030;2024-02-16T06:23:54;9.80;99.90
21316;DHT22;10817;55.820;13.030;2024-02-16T06:26:21;9.40;99.90
21316;DHT22;10817;55.820;13.030;2024-02-16T06:28:48;9.50;99.90
21316;DHT22;10817;55.820;13.030;2024-02-16T06:31:14;9.40;99.90
21316;DHT22;10817;55.820;13.030;2024-02-16T06:33:41;9.40;99.90
21316;DHT22;10817;55.820;13.030;2024-02-16T06:36:08;9.40;99.90
21316;DHT22;10817;55.820;13.030;2024-02-16T06:38:37;9.70;99.90
21316;DHT22;10817;55.820;13.030;2024-02-16T06:41:04;9.40;99.90
21316;DHT22;10817;55.820;13.030;2024-02-16T06:43:31;9.30;99.90
21316;DHT22;10817;55.820;13.030;2024-02-16T06:45:58;9.30;99.90
21316;DHT22;10817;55.820;13.030;2024-02-16T06:48:25;9.40;99.90
21316;DHT22;10817;55.820;13.030;2024-02-16T06:50:51;9.30;99.90
21316;DHT22;10817;55.820;13.030;2024-02-16T06:53:19;9.70;99.90
21316;DHT22;10817;55.820;13.030;2024-02-16T06:55:48;9.40;99.90
21316;DHT22;10817;55.820;13.030;2024-02-16T06:58:16;9.40;99.90
21316;DHT22;10817;55.820;13.030;2024-02-16T07:00:42;9.30;99.90
21316;DHT22;10817;55.820;13.030;2024-02-16T07:03:09;9.30;99.90
21316;DHT22;10817;55.820;13.030;2024-02-16T07:05:36;9.60;99.90
21316;DHT22;10817;55.820;13.030;2024-02-16T07:08:05;10.10;99.90
21316;DHT22;10817;55.820;13.030;2024-02-16T07:10:33;9.30;99.90
21316;DHT22;10817;55.820;13.030;2024-02-16T07:13:01;9.30;99.90
21316;DHT22;10817;55.820;13.030;2024-02-16T07:15:29;9.30;99.90
21316;DHT22;10817;55.820;13.030;2024-02-16T07:17:56;9.30;99.90
21316;DHT22;10817;55.820;13.030;2024-02-16T07:20:23;9.40;99.90
21316;DHT22;10817;55.820;13.030;2024-02-16T07:22:51;9.40;99.90
21316;DHT22;10817;55.820;13.030;2024-02-16T07:25:18;9.30;99.90
21316;DHT22;10817;55.820;13.030;2024-02-16T07:27:45;9.30;99.90
21316;DHT22;10817;55.820;13.030;2024-02-16T07:30:13;9.30;99.90
21316;DHT22;10817;55.820;13.030;2024-02-16T07:32:40;9.30;99.90
21316;DHT22;10817;55.820;13.030;2024-02-16T07:35:09;9.30;99.90
21316;DHT22;10817;55.820;13.030;2024-02-16T07:37:38;9.30;99.90
21316;DHT22;10817;55.820;13.030;2024-02-16T07:40:08;9.40;99.90
21316;DHT22;10817;55.820;13.030;2024-02-16T07:42:38;9.40;99.90
21316;DHT22;10817;55.820;13.030;2024-02-16T07:45:06;9.80;99.90
21316;DHT22;10817;55.820;13.030;2024-02-16T07:47:34;9.50;99.90
21316;DHT22;10817;55.820;13.030;2024-02-16T07:50:01;9.70;99.90
21316;DHT22;10817;55.820;13.030;2024-02-16T07:52:28;9.60;99.90
21316;DHT22;10817;55.820;13.030;2024-02-16T07:54:55;9.50;99.90
21316;DHT22;10817;55.820;13.030;2024-02-16T07:57:22;9.60;99.90
21316;DHT22;10817;55.820;13.030;2024-02-16T07:59:49;9.60;99.90
21316;DHT22;10817;55.820;13.030;2024-02-16T08:02:16;9.70;99.90
21316;DHT22;10817;55.820;13.030;2024-02-16T08:04:46;9.60;99.90
21316;DHT22;10817;55.820;13.030;2024-02-16T08:07:13;9.60;99.90
21316;DHT22;10817;55.820;13.030;2024-02-16T08:09:43;10.80;99.90
21316;DHT22;10817;55.820;13.030;2024-02-16T08:12:10;9.60;99.90
21316;DHT22;10817;55.820;13.030;2024-02-16T08:14:38;9.60;99.90
21316;DHT22;10817;55.820;13.030;2024-02-16T08:17:05;9.60;99.90
21316;DHT22;10817;55.820;13.030;2024-02-16T08:19:33;9.70;99.90
21316;DHT22;10817;55.820;13.030;2024-02-16T08:22:02;10.00;99.90
21316;DHT22;10817;55.820;13.030;2024-02-16T08:24:28;9.70;99.90
21316;DHT22;10817;55.820;13.030;2024-02-16T08:26:55;9.90;99.90
21316;DHT22;10817;55.820;13.030;2024-02-16T08:29:23;9.60;99.90
21316;DHT22;10817;55.820;13.030;2024-02-16T08:31:51;9.60;99.90
21316;DHT22;10817;55.820;13.030;2024-02-16T08:34:18;9.60;99.90
21316;DHT22;10817;55.820;13.030;2024-02-16T08:36:45;9.60;99.90
21316;DHT22;10817;55.820;13.030;2024-02-16T08:39:14;9.60;99.90
21316;DHT22;10817;55.820;13.030;2024-02-16T08:41:41;9.60;99.90
21316;DHT22;10817;55.820;13.030;2024-02-16T08:44:09;9.70;99.90
21316;DHT22;10817;55.820;13.030;2024-02-16T08:46:36;9.60;99.90
21316;DHT22;10817;55.820;13.030;2024-02-16T08:49:04;9.70;99.90
21316;DHT22;10817;55.820;13.030;2024-02-16T08:51:31;9.70;99.90
21316;DHT22;10817;55.820;13.030;2024-02-16T08:53:58;9.80;99.90
21316;DHT22;10817;55.820;13.030;2024-02-16T08:56:27;9.80;99.90
21316;DHT22;10817;55.820;13.030;2024-02-16T08:58:54;9.80;99.90
21316;DHT22;10817;55.820;13.030;2024-02-16T09:01:30;9.80;99.90
21316;DHT22;10817;55.820;13.030;2024-02-16T09:03:57;9.80;99.90
21316;DHT22;10817;55.820;13.030;2024-02-16T09:06:23;9.90;99.90
21316;DHT22;10817;55.820;13.030;2024-02-16T09:08:50;10.20;99.90
21316;DHT22;10817;55.820;13.030;2024-02-16T09:11:17;9.90;99.90
21316;DHT22;10817;55.820;13.030;2024-02-16T09:13:46;10.10;99.90
21316;DHT22;10817;55.820;13.030;2024-02-16T09:16:13;10.20;99.90
21316;DHT22;10817;55.820;13.030;2024-02-16T09:18:39;10.20;99.90
21316;DHT22;10817;55.820;13.030;2024-02-16T09:21:07;10.20;99.90
21316;DHT22;10817;55.820;13.030;2024-02-16T09:23:35;10.10;99.90
21316;DHT22;10817;55.820;13.030;2024-02-16T09:26:02;10.20;99.90
21316;DHT22;10817;55.820;13.030;2024-02-16T09:28:29;10.30;99.90
21316;DHT22;10817;55.820;13.030;2024-02-16T09:30:57;10.60;99.90
21316;DHT22;10817;55.820;13.030;2024-02-16T09:33:24;10.90;99.90
21316;DHT22;10817;55.820;13.030;2024-02-16T09:35:52;11.10;99.90
21316;DHT22;10817;55.820;13.030;2024-02-16T09:38:19;11.30;99.90
21316;DHT22;10817;55.820;13.030;2024-02-16T09:40:46;11.60;99.90
21316;DHT22;10817;55.820;13.030;2024-02-16T09:43:26;11.30;99.90
21316;DHT22;10817;55.820;13.030;2024-02-16T09:45:54;10.70;99.90
21316;DHT22;10817;55.820;13.030;2024-02-16T09:48:24;10.70;99.90
21316;DHT22;10817;55.820;13.030;2024-02-16T09:50:53;10.50;99.90
21316;DHT22;10817;55.820;13.030;2024-02-16T09:53:21;10.40;99.90
21316;DHT22;10817;55.820;13.030;2024-02-16T09:55:50;10.50;99.90
21316;DHT22;10817;55.820;13.030;2024-02-16T09:58:17;10.90;99.90
21316;DHT22;10817;55.820;13.030;2024-02-16T10:00:49;11.10;99.90
21316;DHT22;10817;55.820;13.030;2024-02-16T10:03:25;11.20;99.90
21316;DHT22;10817;55.820;13.030;2024-02-16T10:05:52;11.40;99.90
21316;DHT22;10817;55.820;13.030;2024-02-16T10:08:19;11.60;99.90
21316;DHT22;10817;55.820;13.030;2024-02-16T10:10:46;11.30;99.90
21316;DHT22;10817;55.820;13.030;2024-02-16T10:13:15;11.00;99.90
21316;DHT22;10817;55.820;13.030;2024-02-16T10:15:42;10.90;99.90
21316;DHT22;10817;55.820;13.030;2024-02-16T10:18:10;11.10;99.90
21316;DHT22;10817;55.820;13.030;2024-02-16T10:20:38;11.30;99.90
21316;DHT22;10817;55.820;13.030;2024-02-16T10:23:07;11.20;99.90
21316;DHT22;10817;55.820;13.030;2024-02-16T10:25:35;11.10;99.90
21316;DHT22;10817;55.820;13.030;2024-02-16T10:28:05;10.90;99.90
21316;DHT22;10817;55.820;13.030;2024-02-16T10:30:36;10.70;99.90
21316;DHT22;10817;55.820;13.030;2024-02-16T10:33:05;10.60;99.90
21316;DHT22;10817;55.820;13.030;2024-02-16T10:35:33;10.60;99.90
21316;DHT22;10817;55.820;13.030;2024-02-16T10:38:03;10.80;99.90
21316;DHT22;10817;55.820;13.030;2024-02-16T10:40:33;10.80;99.90
21316;DHT22;10817;55.820;13.030;2024-02-16T10:43:03;10.70;99.90
21316;DHT22;10817;55.820;13.030;2024-02-16T10:45:33;10.60;99.90
21316;DHT22;10817;55.820;13.030;2024-02-16T10:48:00;10.60;99.90
21316;DHT22;10817;55.820;13.030;2024-02-16T10:50:27;10.60;99.90
21316;DHT22;10817;55.820;13.030;2024-02-16T10:52:55;10.80;99.90
21316;DHT22;10817;55.820;13.030;2024-02-16T10:55:25;11.10;99.90
21316;DHT22;10817;55.820;13.030;2024-02-16T10:57:52;11.50;99.90
21316;DHT22;10817;55.820;13.030;2024-02-16T11:00:21;11.50;99.90
21316;DHT22;10817;55.820;13.030;2024-02-16T11:02:54;11.80;99.90
21316;DHT22;10817;55.820;13.030;2024-02-16T11:05:35;12.20;99.90
21316;DHT22;10817;55.820;13.030;2024-02-16T11:08:03;12.00;99.90
21316;DHT22;10817;55.820;13.030;2024-02-16T11:10:32;11.80;99.90
21316;DHT22;10817;55.820;13.030;2024-02-16T11:13:03;12.00;99.90
21316;DHT22;10817;55.820;13.030;2024-02-16T11:15:31;11.70;99.90
21316;DHT22;10817;55.820;13.030;2024-02-16T11:18:00;11.40;99.90
21316;DHT22;10817;55.820;13.030;2024-02-16T11:20:28;11.40;99.90
21316;DHT22;10817;55.820;13.030;2024-02-16T11:23:05;12.10;99.90
21316;DHT22;10817;55.820;13.030;2024-02-16T11:25:34;12.70;99.90
21316;DHT22;10817;55.820;13.030;2024-02-16T11:28:03;13.40;99.90
21316;DHT22;10817;55.820;13.030;2024-02-16T11:30:32;13.60;99.90
21316;DHT22;10817;55.820;13.030;2024-02-16T11:33:00;14.00;99.90
21316;DHT22;10817;55.820;13.030;2024-02-16T11:35:27;13.90;99.90
21316;DHT22;10817;55.820;13.030;2024-02-16T11:37:55;13.50;99.90
21316;DHT22;10817;55.820;13.030;2024-02-16T11:40:22;13.20;99.90
21316;DHT22;10817;55.820;13.030;2024-02-16T11:42:57;12.40;99.90
21316;DHT22;10817;55.820;13.030;2024-02-16T11:45:24;12.10;99.90
21316;DHT22;10817;55.820;13.030;2024-02-16T11:48:02;11.80;99.90
21316;DHT22;10817;55.820;13.030;2024-02-16T11:50:29;13.20;99.90
21316;DHT22;10817;55.820;13.030;2024-02-16T11:52:56;11.40;99.90
21316;DHT22;10817;55.820;13.030;2024-02-16T11:55:23;11.20;99.90
21316;DHT22;10817;55.820;13.030;2024-02-16T11:57:51;11.20;99.90
21316;DHT22;10817;55.820;13.030;2024-02-16T12:00:20;11.00;99.90
21316;DHT22;10817;55.820;13.030;2024-02-16T12:02:47;10.90;99.90
21316;DHT22;10817;55.820;13.030;2024-02-16T12:05:14;10.90;99.90
21316;DHT22;10817;55.820;13.030;2024-02-16T12:07:41;10.80;99.90
21316;DHT22;10817;55.820;13.030;2024-02-16T12:10:08;10.60;99.90
21316;DHT22;10817;55.820;13.030;2024-02-16T12:12:36;10.80;99.90
21316;DHT22;10817;55.820;13.030;2024-02-16T12:15:06;10.60;99.90
21316;DHT22;10817;55.820;13.030;2024-02-16T12:17:33;10.50;99.90
21316;DHT22;10817;55.820;13.030;2024-02-16T12:20:00;10.40;99.90
21316;DHT22;10817;55.820;13.030;2024-02-16T12:22:28;10.30;99.90
21316;DHT22;10817;55.820;13.030;2024-02-16T12:24:54;10.40;99.90
21316;DHT22;10817;55.820;13.030;2024-02-16T12:27:21;10.30;99.90
21316;DHT22;10817;55.820;13.030;2024-02-16T12:29:49;10.30;99.90
21316;DHT22;10817;55.820;13.030;2024-02-16T12:32:17;10.30;99.90
21316;DHT22;10817;55.820;13.030;2024-02-16T12:34:44;10.30;99.90
21316;DHT22;10817;55.820;13.030;2024-02-16T12:37:10;10.30;99.90
21316;DHT22;10817;55.820;13.030;2024-02-16T12:39:38;10.30;99.90
21316;DHT22;10817;55.820;13.030;2024-02-16T12:42:06;10.30;99.90
21316;DHT22;10817;55.820;13.030;2024-02-16T12:44:32;10.40;99.90
21316;DHT22;10817;55.820;13.030;2024-02-16T12:46:59;11.00;99.90
21316;DHT22;10817;55.820;13.030;2024-02-16T12:49:28;10.50;99.90
21316;DHT22;10817;55.820;13.030;2024-02-16T12:51:55;11.60;99.90
21316;DHT22;10817;55.820;13.030;2024-02-16T12:54:22;10.70;99.90
21316;DHT22;10817;55.820;13.030;2024-02-16T12:56:49;10.70;99.90
21316;DHT22;10817;55.820;13.030;2024-02-16T12:59:17;10.70;99.90
21316;DHT22;10817;55.820;13.030;2024-02-16T13:01:44;10.60;99.90
21316;DHT22;10817;55.820;13.030;2024-02-16T13:04:11;10.90;99.90
21316;DHT22;10817;55.820;13.030;2024-02-16T13:06:48;11.30;99.90
21316;DHT22;10817;55.820;13.030;2024-02-16T13:09:14;10.40;99.90
21316;DHT22;10817;55.820;13.030;2024-02-16T13:11:41;10.40;99.90
21316;DHT22;10817;55.820;13.030;2024-02-16T13:14:08;10.20;99.90
21316;DHT22;10817;55.820;13.030;2024-02-16T13:16:38;10.10;99.90
21316;DHT22;10817;55.820;13.030;2024-02-16T13:19:04;10.00;99.90
21316;DHT22;10817;55.820;13.030;2024-02-16T13:21:31;10.10;99.90
21316;DHT22;10817;55.820;13.030;2024-02-16T13:23:59;10.00;99.90
21316;DHT22;10817;55.820;13.030;2024-02-16T13:26:26;10.10;99.90
21316;DHT22;10817;55.820;13.030;2024-02-16T13:28:53;9.90;99.90
21316;DHT22;10817;55.820;13.030;2024-02-16T13:31:20;10.00;99.90
21316;DHT22;10817;55.820;13.030;2024-02-16T13:33:49;10.10;99.90
21316;DHT22;10817;55.820;13.030;2024-02-16T13:36:15;9.90;99.90
21316;DHT22;10817;55.820;13.030;2024-02-16T13:38:42;9.90;99.90
21316;DHT22;10817;55.820;13.030;2024-02-16T13:41:11;9.90;99.90
21316;DHT22;10817;55.820;13.030;2024-02-16T13:43:38;9.90;99.90
21316;DHT22;10817;55.820;13.030;2024-02-16T13:46:04;9.80;99.90
21316;DHT22;10817;55.820;13.030;2024-02-16T13:48:31;9.80;99.90
21316;DHT22;10817;55.820;13.030;2024-02-16T13:50:58;9.80;99.90
21316;DHT22;10817;55.820;13.030;2024-02-16T13:53:25;9.70;99.90
21316;DHT22;10817;55.820;13.030;2024-02-16T13:55:52;9.70;99.90
21316;DHT22;10817;55.820;13.030;2024-02-16T13:58:22;9.70;99.90
21316;DHT22;10817;55.820;13.030;2024-02-16T14:00:49;9.70;99.90
21316;DHT22;10817;55.820;13.030;2024-02-16T14:03:16;9.70;99.90
21316;DHT22;10817;55.820;13.030;2024-02-16T14:05:44;9.60;99.90
21316;DHT22;10817;55.820;13.030;2024-02-16T14:08:12;9.50;99.90
21316;DHT22;10817;55.820;13.030;2024-02-16T14:10:40;9.30;99.90
21316;DHT22;10817;55.820;13.030;2024-02-16T14:13:07;9.20;99.90
21316;DHT22;10817;55.820;13.030;2024-02-16T14:15:36;9.10;99.90
21316;DHT22;10817;55.820;13.030;2024-02-16T14:18:03;9.00;99.90
21316;DHT22;10817;55.820;13.030;2024-02-16T14:20:32;9.00;99.90
21316;DHT22;10817;55.820;13.030;2024-02-16T14:22:59;8.90;99.90
21316;DHT22;10817;55.820;13.030;2024-02-16T14:25:28;8.90;99.90
21316;DHT22;10817;55.820;13.030;2024-02-16T14:27:55;8.70;99.90
21316;DHT22;10817;55.820;13.030;2024-02-16T14:30:21;9.90;99.90
21316;DHT22;10817;55.820;13.030;2024-02-16T14:32:50;9.00;99.90
21316;DHT22;10817;55.820;13.030;2024-02-16T14:35:19;9.10;99.90
21316;DHT22;10817;55.820;13.030;2024-02-16T14:37:48;9.00;99.90
21316;DHT22;10817;55.820;13.030;2024-02-16T14:40:15;10.10;99.90
21316;DHT22;10817;55.820;13.030;2024-02-16T14:42:42;9.00;99.90
21316;DHT22;10817;55.820;13.030;2024-02-16T14:45:09;9.00;99.90
21316;DHT22;10817;55.820;13.030;2024-02-16T14:47:44;9.00;99.90
21316;DHT22;10817;55.820;13.030;2024-02-16T14:50:13;9.00;99.90
21316;DHT22;10817;55.820;13.030;2024-02-16T14:52:40;9.00;99.90
21316;DHT22;10817;55.820;13.030;2024-02-16T14:55:08;9.00;99.90
21316;DHT22;10817;55.820;13.030;2024-02-16T14:57:36;9.00;99.90
21316;DHT22;10817;55.820;13.030;2024-02-16T15:00:03;9.10;99.90
21316;DHT22;10817;55.820;13.030;2024-02-16T15:02:30;9.00;99.90
21316;DHT22;10817;55.820;13.030;2024-02-16T15:04:57;9.00;99.90
21316;DHT22;10817;55.820;13.030;2024-02-16T15:07:26;9.40;99.90
21316;DHT22;10817;55.820;13.030;2024-02-16T15:09:53;9.00;99.90
21316;DHT22;10817;55.820;13.030;2024-02-16T15:12:20;9.80;99.90
21316;DHT22;10817;55.820;13.030;2024-02-16T15:14:47;9.60;99.90
21316;DHT22;10817;55.820;13.030;2024-02-16T15:17:14;9.00;99.90
21316;DHT22;10817;55.820;13.030;2024-02-16T15:19:41;9.70;99.90
21316;DHT22;10817;55.820;13.030;2024-02-16T15:22:08;9.10;99.90
21316;DHT22;10817;55.820;13.030;2024-02-16T15:24:37;8.90;99.90
21316;DHT22;10817;55.820;13.030;2024-02-16T15:27:04;8.90;99.90
21316;DHT22;10817;55.820;13.030;2024-02-16T15:29:31;8.90;99.90